Time;durP1;ratioP1;P1;durP2;ratioP2;P2;SDS_P1;SDS_P2;PMS_P1;PMS_P2;Temp;Humidity;BMP_temperature;BMP_pressure;BME280_temperature;BME280_humidity;BME280_pressure;Samples;Min_cycle;Max_cycle;Signal;HPM_P1;HPM_P2
2022/11/08 00:02:25;;;;;;;14.77;3.83;;;13.00;88.00;;;;;;4997184;28;20301;-92
2022/11/08 00:04:51;;;;;;;13.50;4.50;;;13.00;87.90;;;;;;4995533;28;20206;-92
2022/11/08 00:15:32;;;;;;;10.80;3.27;;;13.00;87.60;;;;;;4996988;28;20221;-92
2022/11/08 00:17:57;;;;;;;12.17;3.67;;;13.10;87.60;;;;;;4995880;28;20256;-93
2022/11/08 00:20:23;;;;;;;11.83;3.33;;;13.00;87.50;;;;;;4996313;28;20178;-92
2022/11/08 00:22:48;;;;;;;11.83;3.70;;;13.00;87.50;;;;;;4995226;28;20201;-92
2022/11/08 00:25:14;;;;;;;10.73;3.47;;;12.90;87.70;;;;;;4995473;28;20174;-92
2022/11/08 00:27:39;;;;;;;19.50;3.27;;;12.90;87.80;;;;;;4995308;28;20648;-93
2022/11/08 00:30:05;;;;;;;13.63;4.37;;;12.90;87.70;;;;;;4995109;28;20205;-93
2022/11/08 00:32:31;;;;;;;12.93;3.77;;;12.80;87.70;;;;;;4995086;28;20260;-93
2022/11/08 00:34:57;;;;;;;5.60;2.77;;;12.80;88.00;;;;;;4995702;28;20687;-92
2022/11/08 00:37:22;;;;;;;15.07;4.67;;;12.80;87.90;;;;;;4994796;28;20202;-93
2022/11/08 00:39:48;;;;;;;7.80;3.43;;;12.80;87.80;;;;;;4995122;28;20186;-93
2022/11/08 00:42:14;;;;;;;10.27;3.33;;;12.80;87.80;;;;;;4994826;28;20198;-92
2022/11/08 00:44:40;;;;;;;11.13;3.40;;;12.80;87.70;;;;;;4995016;28;20638;-92
2022/11/08 00:47:05;;;;;;;13.73;3.70;;;12.80;87.80;;;;;;4993929;28;20269;-92
2022/11/08 00:49:31;;;;;;;14.60;3.40;;;12.80;87.90;;;;;;4994858;28;20182;-92
2022/11/08 00:51:56;;;;;;;10.50;3.27;;;12.70;88.00;;;;;;4994879;28;20260;-92
2022/11/08 00:54:22;;;;;;;16.30;3.77;;;12.70;87.70;;;;;;4995045;28;20189;-93
2022/11/08 00:56:48;;;;;;;12.67;4.00;;;12.70;87.80;;;;;;4994816;28;20236;-92
2022/11/08 00:59:16;;;;;;;9.97;4.27;;;12.70;87.70;;;;;;4994669;28;20174;-92
2022/11/08 01:01:42;;;;;;;9.70;3.90;;;12.70;87.80;;;;;;4994262;28;20261;-92
2022/11/08 01:04:09;;;;;;;10.57;3.30;;;12.60;88.10;;;;;;4994338;28;20186;-92
2022/11/08 01:06:35;;;;;;;10.93;3.70;;;12.70;87.90;;;;;;4994552;28;20182;-92
2022/11/08 01:09:01;;;;;;;8.70;3.77;;;12.60;88.00;;;;;;4994594;28;20561;-92
2022/11/08 01:11:27;;;;;;;9.80;3.67;;;12.60;88.00;;;;;;4994642;28;20186;-92
2022/11/08 01:13:56;;;;;;;13.13;3.63;;;12.60;88.00;;;;;;4994075;28;20186;-93
2022/11/08 01:16:25;;;;;;;11.80;3.70;;;12.60;88.00;;;;;;4994203;28;20182;-93
2022/11/08 01:18:53;;;;;;;8.90;3.77;;;12.50;88.20;;;;;;4994219;28;20485;-92
2022/11/08 01:21:19;;;;;;;6.67;3.43;;;12.50;88.30;;;;;;4993856;28;20182;-92
2022/11/08 01:23:45;;;;;;;7.17;3.17;;;12.60;88.20;;;;;;4993783;28;20644;-92
2022/11/08 01:26:19;;;;;;;10.83;3.00;;;12.50;88.10;;;;;;4993893;28;20269;-92
2022/11/08 01:28:46;;;;;;;6.77;3.00;;;12.40;88.40;;;;;;4994302;28;20162;-93
2022/11/08 01:31:18;;;;;;;11.23;3.47;;;12.40;88.40;;;;;;4993902;28;20190;-92
2022/11/08 01:33:49;;;;;;;12.70;3.80;;;12.40;88.40;;;;;;4993834;28;20534;-93
2022/11/08 01:36:16;;;;;;;9.97;3.60;;;12.40;88.30;;;;;;4993583;28;20182;-93
2022/11/08 01:38:42;;;;;;;9.07;3.00;;;12.40;88.30;;;;;;4993641;28;20731;-92
2022/11/08 01:41:12;;;;;;;10.03;2.90;;;12.30;88.40;;;;;;4993409;28;20182;-93
2022/11/08 01:43:45;;;;;;;13.43;3.40;;;12.30;88.50;;;;;;4993679;28;20182;-92
2022/11/08 01:46:32;;;;;;;7.93;3.47;;;12.30;88.50;;;;;;4994397;28;20513;-92
2022/11/08 01:49:17;;;;;;;8.20;3.40;;;12.30;88.40;;;;;;4993895;28;20178;-92
2022/11/08 01:52:00;;;;;;;11.37;3.60;;;12.30;88.50;;;;;;4994220;28;20210;-92
2022/11/08 01:54:40;;;;;;;8.70;3.40;;;12.30;88.50;;;;;;4993611;28;20648;-92
2022/11/08 01:57:09;;;;;;;11.83;3.47;;;12.40;88.40;;;;;;4993396;28;20225;-92
2022/11/08 01:59:38;;;;;;;7.57;2.90;;;12.40;88.40;;;;;;4993583;28;20178;-92
2022/11/08 02:02:05;;;;;;;5.63;2.67;;;12.40;88.40;;;;;;4993322;28;20691;-92
2022/11/08 02:04:31;;;;;;;7.60;2.90;;;12.40;88.50;;;;;;4993112;28;20641;-92
2022/11/08 02:06:57;;;;;;;7.40;3.20;;;12.50;88.20;;;;;;4993174;28;20193;-92
2022/11/08 02:09:23;;;;;;;13.00;3.37;;;12.60;88.00;;;;;;4993736;28;20183;-92
2022/11/08 02:11:51;;;;;;;13.33;3.10;;;12.60;87.80;;;;;;4993700;28;20237;-92
2022/11/08 02:14:17;;;;;;;11.33;3.17;;;12.60;87.70;;;;;;4993501;28;20190;-93
2022/11/08 02:16:43;;;;;;;9.90;3.10;;;12.70;87.70;;;;;;4993433;28;20213;-92
2022/11/08 02:19:20;;;;;;;5.57;2.63;;;12.70;87.70;;;;;;4993417;28;20174;-92
2022/11/08 02:21:52;;;;;;;12.00;3.53;;;12.60;87.80;;;;;;4993101;28;20208;-92
2022/11/08 02:24:17;;;;;;;9.13;3.30;;;12.70;87.80;;;;;;4993034;28;20650;-92
2022/11/08 02:26:45;;;;;;;8.60;2.90;;;12.70;87.60;;;;;;4993096;28;20178;-92
2022/11/08 02:29:29;;;;;;;11.97;3.27;;;12.70;87.50;;;;;;4993165;28;20186;-92
2022/11/08 02:31:55;;;;;;;17.53;3.80;;;12.70;87.60;;;;;;4992895;28;20205;-92
2022/11/08 02:34:26;;;;;;;11.03;3.07;;;12.80;87.40;;;;;;4992958;28;20225;-92
2022/11/08 02:36:51;;;;;;;16.73;3.07;;;12.80;87.20;;;;;;4992779;28;20230;-91
2022/11/08 02:39:17;;;;;;;11.67;3.50;;;12.80;87.20;;;;;;4992871;28;20242;-92
2022/11/08 02:41:42;;;;;;;7.43;2.90;;;12.90;86.90;;;;;;4992645;28;20280;-92
2022/11/08 02:44:08;;;;;;;12.93;3.23;;;12.90;86.70;;;;;;4992780;28;20182;-92
2022/11/08 02:46:33;;;;;;;9.97;3.17;;;12.90;86.80;;;;;;4993213;28;20285;-92
2022/11/08 02:48:59;;;;;;;13.43;2.97;;;12.90;86.80;;;;;;4992898;28;20236;-91
2022/11/08 02:51:24;;;;;;;6.83;2.80;;;12.90;86.70;;;;;;4992478;28;20174;-92
2022/11/08 02:53:50;;;;;;;14.00;2.97;;;12.90;86.80;;;;;;4992591;28;20671;-92
2022/11/08 02:56:15;;;;;;;10.07;2.80;;;12.90;86.70;;;;;;4992604;28;20722;-92
2022/11/08 02:58:41;;;;;;;14.00;3.17;;;12.90;86.80;;;;;;5000711;28;20635;-92
2022/11/08 03:01:07;;;;;;;12.83;3.03;;;12.90;86.80;;;;;;4992409;28;20194;-92
2022/11/08 03:03:32;;;;;;;9.40;2.97;;;12.80;87.00;;;;;;4992496;28;20210;-92
2022/11/08 03:05:58;;;;;;;11.03;4.00;;;12.80;87.00;;;;;;4992358;28;20188;-92
2022/11/08 03:08:23;;;;;;;7.77;3.10;;;13.00;86.50;;;;;;4992653;28;20651;-92
2022/11/08 03:10:49;;;;;;;9.83;3.10;;;12.90;86.70;;;;;;4995137;28;20178;-92
2022/11/08 03:13:14;;;;;;;11.43;2.70;;;13.00;86.20;;;;;;4996058;28;20198;-91
2022/11/08 03:15:40;;;;;;;13.13;3.73;;;12.90;86.50;;;;;;4996144;28;20751;-91
2022/11/08 03:18:06;;;;;;;11.17;3.27;;;12.90;86.50;;;;;;4996224;28;20584;-92
2022/11/08 03:20:31;;;;;;;6.97;3.10;;;12.90;86.50;;;;;;4995946;28;20181;-91
2022/11/08 03:22:58;;;;;;;11.93;3.33;;;12.90;86.50;;;;;;4995971;28;20221;-92
2022/11/08 03:25:24;;;;;;;8.87;2.77;;;12.80;86.50;;;;;;4995947;28;20170;-92
2022/11/08 03:27:49;;;;;;;10.57;3.63;;;12.80;86.60;;;;;;4996164;28;20181;-92
2022/11/08 03:30:15;;;;;;;8.77;2.63;;;12.80;86.70;;;;;;4995862;28;20182;-92
2022/11/08 03:32:43;;;;;;;11.90;3.20;;;12.70;87.00;;;;;;4995713;28;20225;-92
2022/11/08 03:35:08;;;;;;;13.43;2.80;;;12.60;87.10;;;;;;4995998;28;20185;-92
2022/11/08 03:37:34;;;;;;;8.93;2.00;;;12.70;86.90;;;;;;4995577;28;20201;-92
2022/11/08 03:39:59;;;;;;;8.87;2.70;;;12.60;87.10;;;;;;4995787;28;20220;-92
2022/11/08 03:42:25;;;;;;;10.10;2.80;;;12.60;87.00;;;;;;4995490;28;20289;-92
2022/11/08 03:44:50;;;;;;;6.90;3.00;;;12.50;87.00;;;;;;4996208;28;20178;-91
2022/11/08 03:47:16;;;;;;;7.13;2.80;;;12.50;87.10;;;;;;4995541;28;20189;-92
2022/11/08 03:49:41;;;;;;;11.73;3.43;;;12.50;87.20;;;;;;4995539;28;20198;-92
2022/11/08 03:52:07;;;;;;;12.03;3.17;;;12.50;87.20;;;;;;4995340;28;20707;-92
2022/11/08 03:54:32;;;;;;;6.37;3.00;;;12.40;87.40;;;;;;4995510;28;20193;-91
2022/11/08 03:56:58;;;;;;;10.80;3.07;;;12.40;87.50;;;;;;4995310;28;20293;-92
2022/11/08 03:59:24;;;;;;;9.60;3.33;;;12.50;87.40;;;;;;4995301;28;20190;-91
2022/11/08 04:01:49;;;;;;;13.57;3.27;;;12.40;87.60;;;;;;4995345;28;20221;-91
2022/11/08 04:04:15;;;;;;;9.30;2.97;;;12.30;87.60;;;;;;4995193;28;20233;-91
2022/11/08 04:06:40;;;;;;;12.87;3.50;;;12.30;87.60;;;;;;4995132;28;20715;-91
2022/11/08 04:09:06;;;;;;;14.10;3.00;;;12.30;87.60;;;;;;4995116;28;20189;-92
2022/11/08 04:16:59;;;;;;;8.43;3.23;;;12.20;87.60;;;;;;4996532;28;20201;-91
2022/11/08 04:22:10;;;;;;;8.53;3.37;;;12.10;87.90;;;;;;4996184;28;20224;-92
2022/11/08 04:24:36;;;;;;;8.93;3.47;;;12.00;88.00;;;;;;4994771;28;20220;-91
2022/11/08 04:27:01;;;;;;;12.07;3.50;;;12.00;88.10;;;;;;4995009;28;20178;-92
2022/11/08 04:29:27;;;;;;;10.40;3.17;;;11.90;88.20;;;;;;4994894;28;20640;-92
2022/11/08 04:31:53;;;;;;;13.57;3.03;;;11.90;88.10;;;;;;4994493;28;20248;-92
2022/11/08 04:34:18;;;;;;;9.77;2.70;;;11.90;88.20;;;;;;4995726;28;20658;-92
2022/11/08 04:36:44;;;;;;;10.80;2.83;;;11.80;88.40;;;;;;4994538;28;20206;-92
2022/11/08 04:39:09;;;;;;;14.67;3.60;;;11.90;88.20;;;;;;4995957;28;20174;-92
2022/11/08 04:41:35;;;;;;;14.23;3.63;;;11.80;88.40;;;;;;4994642;28;20198;-92
2022/11/08 04:44:01;;;;;;;11.10;3.57;;;11.80;88.40;;;;;;4994474;28;20273;-92
2022/11/08 04:46:28;;;;;;;9.73;3.63;;;11.70;88.50;;;;;;4994433;28;20268;-92
2022/11/08 04:48:55;;;;;;;10.60;3.13;;;11.70;88.60;;;;;;4994378;28;20213;-91
2022/11/08 04:51:25;;;;;;;11.67;3.43;;;11.60;88.80;;;;;;4994248;28;20221;-91
2022/11/08 04:53:51;;;;;;;16.07;3.17;;;11.60;88.80;;;;;;4994571;28;20555;-91
2022/11/08 04:56:19;;;;;;;9.67;2.97;;;11.60;88.90;;;;;;4994317;28;20179;-92
2022/11/08 04:58:47;;;;;;;12.20;3.27;;;11.50;89.00;;;;;;4994139;28;20205;-92
2022/11/08 05:01:15;;;;;;;10.33;3.17;;;11.50;89.00;;;;;;4993978;28;20178;-92
2022/11/08 05:03:41;;;;;;;10.50;3.57;;;11.50;89.00;;;;;;4994937;28;20182;-91
2022/11/08 05:06:11;;;;;;;10.90;3.00;;;11.50;89.00;;;;;;4994117;28;20177;-92
2022/11/08 05:08:36;;;;;;;16.73;3.50;;;11.50;89.00;;;;;;4994036;28;20189;-91
2022/11/08 05:11:06;;;;;;;11.03;3.17;;;11.50;89.10;;;;;;4993881;28;20182;-91
2022/11/08 05:13:32;;;;;;;16.30;3.30;;;11.50;89.00;;;;;;4993882;28;20209;-91
2022/11/08 05:16:25;;;;;;;13.13;3.23;;;11.50;88.90;;;;;;4993977;28;20561;-92
2022/11/08 05:18:51;;;;;;;14.30;3.27;;;11.50;88.90;;;;;;4993429;28;20240;-91
2022/11/08 05:24:04;;;;;;;12.73;3.23;;;11.50;88.90;;;;;;4995486;28;20217;-91
2022/11/08 05:26:33;;;;;;;11.80;2.93;;;11.50;88.80;;;;;;4993617;28;20182;-92
2022/11/08 05:28:58;;;;;;;12.17;3.43;;;11.40;88.80;;;;;;4993560;28;20186;-91
2022/11/08 05:31:24;;;;;;;10.97;3.00;;;11.50;88.80;;;;;;4993503;28;20190;-92
2022/11/08 05:33:51;;;;;;;10.53;3.10;;;11.40;88.90;;;;;;4993405;28;20178;-92
2022/11/08 05:36:17;;;;;;;11.70;2.97;;;11.40;88.80;;;;;;4993535;28;20209;-92
2022/11/08 05:38:43;;;;;;;9.87;2.83;;;11.40;88.80;;;;;;4993380;28;20206;-92
2022/11/08 05:41:17;;;;;;;12.30;3.87;;;11.40;88.90;;;;;;4993533;28;20201;-92
2022/11/08 05:43:45;;;;;;;10.97;3.47;;;11.30;89.00;;;;;;4993639;28;20265;-92
2022/11/08 05:46:11;;;;;;;5.17;2.83;;;11.30;89.10;;;;;;4993200;28;20170;-91
2022/11/08 05:48:36;;;;;;;12.03;3.43;;;11.30;89.00;;;;;;4994406;28;20244;-91
2022/11/08 05:51:02;;;;;;;12.47;3.00;;;11.40;88.90;;;;;;4994646;28;20644;-92
2022/11/08 05:53:28;;;;;;;12.20;3.83;;;11.30;88.90;;;;;;4993452;28;20206;-91
2022/11/08 05:55:58;;;;;;;8.13;3.23;;;11.30;88.90;;;;;;4993081;28;20648;-91
2022/11/08 05:58:28;;;;;;;14.23;3.40;;;11.30;89.00;;;;;;4993035;28;20206;-92
2022/11/08 06:01:08;;;;;;;15.20;3.10;;;11.20;89.00;;;;;;4998308;28;20321;-92
2022/11/08 06:03:35;;;;;;;13.03;3.50;;;11.10;89.10;;;;;;4993012;28;20580;-91
2022/11/08 06:06:05;;;;;;;10.03;4.03;;;11.00;89.20;;;;;;4993862;28;20523;-91
2022/11/08 06:08:31;;;;;;;10.00;3.57;;;10.90;89.30;;;;;;4992969;28;20389;-92
2022/11/08 06:11:04;;;;;;;12.27;3.70;;;10.90;89.50;;;;;;4993198;28;20320;-92
2022/11/08 06:13:29;;;;;;;12.30;3.57;;;10.90;89.70;;;;;;4992865;28;20692;-92
2022/11/08 06:15:58;;;;;;;8.87;3.00;;;10.80;89.90;;;;;;4992837;28;20185;-92
2022/11/08 06:18:24;;;;;;;14.63;3.13;;;10.80;89.90;;;;;;4992780;28;20743;-92
2022/11/08 06:20:49;;;;;;;13.73;3.53;;;10.80;90.00;;;;;;4992934;28;20265;-92
2022/11/08 06:23:15;;;;;;;16.97;3.53;;;10.80;90.00;;;;;;4992758;28;20225;-91
2022/11/08 06:25:40;;;;;;;9.87;3.43;;;10.80;90.00;;;;;;4992739;28;20325;-92
2022/11/08 06:28:06;;;;;;;10.43;3.70;;;10.80;90.20;;;;;;4992768;28;20197;-92
2022/11/08 06:30:31;;;;;;;12.47;3.67;;;10.80;90.00;;;;;;4992720;28;20309;-91
2022/11/08 06:32:59;;;;;;;16.37;3.70;;;10.70;90.00;;;;;;4992618;28;20268;-91
2022/11/08 06:35:24;;;;;;;13.07;3.53;;;10.70;90.00;;;;;;4992636;28;20182;-91
2022/11/08 06:37:50;;;;;;;10.07;3.23;;;10.60;90.00;;;;;;4993369;28;20248;-91
2022/11/08 06:40:16;;;;;;;6.50;3.10;;;10.60;90.20;;;;;;4992582;28;20274;-90
2022/11/08 06:42:41;;;;;;;9.67;3.13;;;10.60;90.20;;;;;;4993276;28;20198;-91
2022/11/08 06:45:07;;;;;;;16.03;3.43;;;10.50;90.30;;;;;;4993916;28;20181;-90
2022/11/08 06:47:32;;;;;;;10.67;3.47;;;10.50;90.30;;;;;;4996530;28;20272;-89
2022/11/08 06:49:58;;;;;;;11.77;3.50;;;10.50;90.30;;;;;;4996635;28;20178;-91
2022/11/08 06:52:24;;;;;;;11.70;3.37;;;10.50;90.40;;;;;;4996454;28;20201;-92
2022/11/08 06:54:49;;;;;;;24.47;5.27;;;10.50;90.50;;;;;;4996460;28;20240;-92
2022/11/08 06:57:15;;;;;;;8.80;3.50;;;10.50;90.60;;;;;;4996360;28;20202;-92
2022/11/08 06:59:40;;;;;;;12.27;3.17;;;10.50;90.50;;;;;;4996356;28;20188;-91
2022/11/08 07:02:08;;;;;;;14.13;3.57;;;10.50;90.50;;;;;;5026800;23;20702;-92
2022/11/08 07:04:34;;;;;;;8.97;3.40;;;10.60;90.50;;;;;;5016770;28;20174;-92
2022/11/08 07:07:00;;;;;;;11.57;3.60;;;10.60;90.50;;;;;;5015788;28;20557;-91
2022/11/08 07:09:25;;;;;;;15.57;3.70;;;10.60;90.40;;;;;;5015991;28;20188;-92
2022/11/08 07:11:51;;;;;;;11.30;3.10;;;10.60;90.40;;;;;;5015857;28;20630;-91
2022/11/08 07:14:16;;;;;;;10.03;3.03;;;10.60;90.40;;;;;;5016510;28;20178;-90
2022/11/08 07:16:42;;;;;;;7.93;3.10;;;10.60;90.50;;;;;;5015914;28;20216;-92
2022/11/08 07:19:07;;;;;;;11.17;3.30;;;10.50;90.50;;;;;;5015931;28;20169;-92
2022/11/08 07:21:33;;;;;;;12.10;3.10;;;10.60;90.50;;;;;;5016050;28;20197;-92
2022/11/08 07:23:59;;;;;;;10.80;3.30;;;10.50;90.60;;;;;;5015814;28;20676;-92
2022/11/08 07:26:24;;;;;;;5.67;3.10;;;10.50;90.60;;;;;;5015668;28;20577;-92
2022/11/08 07:28:50;;;;;;;18.93;4.13;;;10.60;90.50;;;;;;5015461;28;20231;-92
2022/11/08 07:31:15;;;;;;;7.10;2.97;;;10.60;90.50;;;;;;5015593;28;20181;-91
2022/11/08 07:33:41;;;;;;;10.40;3.07;;;10.60;90.50;;;;;;5015887;28;20220;-93
2022/11/08 07:36:07;;;;;;;9.80;3.40;;;10.60;90.50;;;;;;5015600;28;20284;-92
2022/11/08 07:38:32;;;;;;;7.53;3.20;;;10.70;90.50;;;;;;5015303;28;20201;-92
2022/11/08 07:40:59;;;;;;;9.47;3.70;;;10.70;90.30;;;;;;5015405;28;20173;-92
2022/11/08 07:43:26;;;;;;;11.77;3.67;;;10.80;90.20;;;;;;5015339;28;20579;-92
2022/11/08 07:45:56;;;;;;;8.37;3.23;;;10.70;90.10;;;;;;5015391;28;20174;-92
2022/11/08 07:48:22;;;;;;;11.93;3.67;;;10.80;90.00;;;;;;5015443;28;20324;-92
2022/11/08 07:50:48;;;;;;;10.40;4.50;;;10.80;89.90;;;;;;5015220;28;20177;-92
2022/11/08 07:53:14;;;;;;;10.87;3.70;;;10.80;89.90;;;;;;5015018;28;20220;-92
2022/11/08 07:55:40;;;;;;;13.57;3.73;;;10.80;89.90;;;;;;5015720;28;20178;-92
2022/11/08 07:58:07;;;;;;;12.67;3.20;;;10.80;89.70;;;;;;5014787;28;20205;-92
2022/11/08 08:00:37;;;;;;;8.43;3.20;;;10.90;89.70;;;;;;5014886;28;20224;-92
2022/11/08 08:03:04;;;;;;;12.47;3.57;;;10.90;89.50;;;;;;5014781;28;20215;-91
2022/11/08 08:05:34;;;;;;;10.37;3.30;;;11.00;89.50;;;;;;5014814;28;20189;-92
2022/11/08 08:08:01;;;;;;;12.23;3.37;;;11.00;89.20;;;;;;5014759;28;20178;-92
2022/11/08 08:10:28;;;;;;;7.83;2.83;;;11.00;89.20;;;;;;5014626;28;20182;-92
2022/11/08 08:12:54;;;;;;;17.07;3.93;;;11.10;89.20;;;;;;5015720;28;20228;-92
2022/11/08 08:15:21;;;;;;;9.90;3.23;;;11.20;89.00;;;;;;5014523;28;20189;-92
2022/11/08 08:17:46;;;;;;;4.47;2.93;;;11.30;88.90;;;;;;5014681;28;20288;-92
2022/11/08 08:20:12;;;;;;;10.30;3.20;;;11.30;88.60;;;;;;5014767;28;20268;-90
2022/11/08 08:22:49;;;;;;;8.17;3.23;;;11.30;88.40;;;;;;5014564;28;20200;-91
2022/11/08 08:25:16;;;;;;;10.10;3.27;;;11.30;88.50;;;;;;5014441;28;20169;-91
2022/11/08 08:27:46;;;;;;;8.97;2.83;;;11.30;88.30;;;;;;5014550;28;20228;-91
2022/11/08 08:30:13;;;;;;;10.40;3.13;;;11.40;88.10;;;;;;5014473;28;20682;-91
2022/11/08 08:32:38;;;;;;;11.07;3.23;;;11.40;88.00;;;;;;5014274;28;20255;-91
2022/11/08 08:35:04;;;;;;;8.93;3.00;;;11.50;87.80;;;;;;5014227;28;20656;-91
2022/11/08 08:37:30;;;;;;;4.83;2.67;;;11.50;87.80;;;;;;5014051;28;20287;-91
2022/11/08 08:39:55;;;;;;;6.43;2.57;;;11.60;87.60;;;;;;5014132;28;20169;-91
2022/11/08 08:42:21;;;;;;;8.27;2.97;;;11.70;87.50;;;;;;5013950;28;20711;-91
2022/11/08 08:44:46;;;;;;;12.00;3.00;;;11.70;86.90;;;;;;5013929;28;20177;-92
2022/11/08 08:47:12;;;;;;;10.40;3.33;;;11.80;86.70;;;;;;5013921;28;20177;-92
2022/11/08 08:49:37;;;;;;;11.33;3.00;;;11.80;86.50;;;;;;5013885;28;20177;-91
2022/11/08 08:52:03;;;;;;;9.30;3.40;;;11.90;86.50;;;;;;5013786;28;20197;-92
2022/11/08 08:54:28;;;;;;;7.73;3.10;;;11.90;86.30;;;;;;5013840;28;20656;-92
2022/11/08 08:56:54;;;;;;;10.00;3.07;;;12.00;85.70;;;;;;5013688;28;20198;-91
2022/11/08 08:59:20;;;;;;;7.23;2.97;;;12.10;85.70;;;;;;5013655;28;20169;-91
2022/11/08 09:01:45;;;;;;;8.63;2.67;;;12.10;85.80;;;;;;5013576;28;20212;-92
2022/11/08 09:04:11;;;;;;;7.60;2.77;;;12.20;85.50;;;;;;5013741;28;20178;-92
2022/11/08 09:06:36;;;;;;;13.33;2.93;;;12.30;85.00;;;;;;5013487;28;20265;-92
2022/11/08 09:09:02;;;;;;;6.03;2.57;;;12.30;84.90;;;;;;5013076;28;20180;-92
2022/11/08 09:11:27;;;;;;;4.27;2.23;;;12.30;84.70;;;;;;5013475;28;20174;-91
2022/11/08 09:13:53;;;;;;;4.83;2.30;;;12.40;84.60;;;;;;5013663;28;20173;-91
2022/11/08 09:16:19;;;;;;;4.53;2.40;;;12.40;84.80;;;;;;5014834;28;20174;-92
2022/11/08 09:18:44;;;;;;;8.97;2.70;;;12.40;84.40;;;;;;5013378;28;20687;-92
2022/11/08 09:21:10;;;;;;;8.93;2.77;;;12.50;84.30;;;;;;5013344;28;20544;-92
2022/11/08 09:23:35;;;;;;;5.20;2.50;;;12.50;84.00;;;;;;5014219;28;20290;-90
2022/11/08 09:26:03;;;;;;;7.00;2.70;;;12.50;83.90;;;;;;5023789;28;20191;-91
2022/11/08 09:28:30;;;;;;;9.70;3.30;;;12.60;83.80;;;;;;5013231;28;20207;-91
2022/11/08 09:30:59;;;;;;;7.27;3.13;;;12.60;84.10;;;;;;5013269;28;20182;-90
2022/11/08 09:33:25;;;;;;;6.57;3.30;;;12.60;83.90;;;;;;5013039;28;20702;-92
2022/11/08 09:35:52;;;;;;;7.50;2.57;;;12.60;83.70;;;;;;5013147;28;20181;-92
2022/11/08 09:38:18;;;;;;;12.20;2.43;;;12.60;83.60;;;;;;5012890;28;20554;-92
2022/11/08 09:40:59;;;;;;;10.57;3.57;;;12.70;83.80;;;;;;5013023;28;20670;-92
2022/11/08 09:43:52;;;;;;;13.23;3.80;;;12.70;83.30;;;;;;5012875;28;20638;-92
2022/11/08 09:46:27;;;;;;;9.80;2.73;;;12.70;83.50;;;;;;5013009;28;20158;-92
2022/11/08 09:48:54;;;;;;;7.67;2.67;;;12.70;83.50;;;;;;5012870;28;20168;-92
2022/11/08 09:51:23;;;;;;;10.30;2.90;;;12.70;83.80;;;;;;5012732;28;20196;-91
2022/11/08 09:53:50;;;;;;;11.20;4.07;;;12.70;83.40;;;;;;5012677;28;20173;-92
2022/11/08 09:56:35;;;;;;;13.43;4.10;;;12.80;83.60;;;;;;5012718;28;20174;-91
2022/11/08 09:59:17;;;;;;;11.47;4.60;;;12.80;83.40;;;;;;5013498;28;20553;-91
2022/11/08 10:01:43;;;;;;;9.50;4.30;;;12.80;83.20;;;;;;5012435;28;20201;-91
2022/11/08 10:04:15;;;;;;;11.57;4.27;;;12.90;83.00;;;;;;5012626;28;20534;-91
2022/11/08 10:06:57;;;;;;;13.03;4.27;;;13.00;82.80;;;;;;5012584;28;20173;-90
2022/11/08 10:09:47;;;;;;;5.00;2.70;;;13.00;83.00;;;;;;5013715;28;20627;-91
2022/11/08 10:12:29;;;;;;;7.50;2.60;;;13.00;82.10;;;;;;5012452;28;20193;-91
2022/11/08 10:15:06;;;;;;;5.67;2.57;;;13.00;82.40;;;;;;5016796;28;20208;-90
2022/11/08 10:17:43;;;;;;;5.93;2.80;;;13.10;82.40;;;;;;5021497;28;20189;-90
2022/11/08 10:20:23;;;;;;;10.53;3.30;;;13.20;82.30;;;;;;5024850;28;20165;-91
2022/11/08 10:23:04;;;;;;;10.17;4.57;;;13.30;82.20;;;;;;5020484;28;20185;-90
2022/11/08 10:25:37;;;;;;;9.83;2.57;;;13.40;81.60;;;;;;5012413;28;20172;-91
2022/11/08 10:28:06;;;;;;;4.30;2.47;;;13.50;81.10;;;;;;5012593;28;20631;-89
2022/11/08 10:30:36;;;;;;;8.67;3.10;;;13.50;81.00;;;;;;5012770;28;20254;-89
2022/11/08 10:33:19;;;;;;;5.83;3.07;;;13.60;80.80;;;;;;5012394;28;20252;-90
2022/11/08 10:35:54;;;;;;;5.47;2.60;;;13.60;80.50;;;;;;5012665;28;20169;-90
2022/11/08 10:38:30;;;;;;;6.53;2.53;;;13.70;80.00;;;;;;5012112;28;20266;-90
2022/11/08 10:41:20;;;;;;;5.43;2.53;;;13.80;80.40;;;;;;5012358;28;20275;-90
2022/11/08 10:43:54;;;;;;;5.40;2.83;;;13.80;79.50;;;;;;5012230;28;20193;-90
2022/11/08 10:46:25;;;;;;;4.77;2.07;;;13.90;79.80;;;;;;5012150;28;20165;-90
2022/11/08 10:48:51;;;;;;;7.87;3.53;;;13.90;79.60;;;;;;5012521;28;20189;-90
2022/11/08 10:51:16;;;;;;;3.50;2.40;;;13.90;79.60;;;;;;5012020;28;20274;-90
2022/11/08 10:53:43;;;;;;;6.93;2.37;;;13.90;78.80;;;;;;5012330;28;20181;-90
2022/11/08 10:56:09;;;;;;;5.87;2.50;;;13.90;78.80;;;;;;5012079;28;20181;-91
2022/11/08 10:58:40;;;;;;;9.60;2.60;;;14.10;78.90;;;;;;5011891;28;20579;-90
2022/11/08 11:01:15;;;;;;;7.47;2.60;;;14.10;78.60;;;;;;5012115;28;20575;-90
2022/11/08 11:03:42;;;;;;;7.90;2.43;;;14.20;78.40;;;;;;5012069;28;20197;-89
2022/11/08 11:06:28;;;;;;;3.30;2.30;;;14.30;77.30;;;;;;5011901;28;20169;-90
2022/11/08 11:09:02;;;;;;;4.30;2.17;;;14.30;76.80;;;;;;5012032;28;20170;-90
2022/11/08 11:11:31;;;;;;;7.77;2.30;;;14.40;77.20;;;;;;5011847;28;20263;-90
2022/11/08 11:14:11;;;;;;;5.23;2.13;;;14.40;76.80;;;;;;5011964;28;20182;-90
2022/11/08 11:16:37;;;;;;;4.53;2.30;;;14.50;76.80;;;;;;5011895;28;20248;-90
2022/11/08 11:19:05;;;;;;;7.23;2.50;;;14.50;76.30;;;;;;5011899;28;20182;-91
2022/11/08 11:21:38;;;;;;;7.57;2.50;;;14.50;75.70;;;;;;5011863;28;20174;-91
2022/11/08 11:24:16;;;;;;;7.55;2.42;;;14.60;76.00;;;;;;5011742;28;20184;-91
2022/11/08 11:26:46;;;;;;;3.47;2.35;;;14.70;75.60;;;;;;5011788;28;20267;-91
2022/11/08 11:29:23;;;;;;;5.78;2.75;;;14.70;76.10;;;;;;5011694;28;20174;-91
2022/11/08 11:31:52;;;;;;;4.35;2.35;;;14.70;74.70;;;;;;5014205;28;20200;-92
2022/11/08 11:34:17;;;;;;;4.55;2.30;;;14.70;75.60;;;;;;5015363;28;20173;-91
2022/11/08 11:36:56;;;;;;;4.07;2.50;;;14.70;75.50;;;;;;5015766;28;20184;-90
2022/11/08 11:39:30;;;;;;;3.70;2.33;;;14.70;74.90;;;;;;5015308;28;20239;-91
2022/11/08 11:42:08;;;;;;;7.20;2.50;;;14.70;75.00;;;;;;5015702;28;20228;-90
2022/11/08 11:45:01;;;;;;;6.57;3.40;;;14.70;75.60;;;;;;5016725;28;20161;-90
2022/11/08 11:47:32;;;;;;;8.50;2.40;;;14.60;75.50;;;;;;5015368;28;20283;-90
2022/11/08 11:50:11;;;;;;;4.70;2.20;;;14.60;76.00;;;;;;5015369;28;20173;-91
2022/11/08 11:52:36;;;;;;;4.70;2.23;;;14.60;76.10;;;;;;5015215;28;20201;-91
2022/11/08 11:55:02;;;;;;;4.23;2.33;;;14.60;75.90;;;;;;5015155;28;20177;-91
2022/11/08 11:57:47;;;;;;;7.03;2.57;;;14.50;75.70;;;;;;5015154;28;20248;-91
2022/11/08 12:00:16;;;;;;;3.73;2.33;;;14.50;76.00;;;;;;5015889;28;20173;-91
2022/11/08 12:03:13;;;;;;;3.72;2.45;;;14.50;76.00;;;;;;5014825;28;20260;-91
2022/11/08 12:05:51;;;;;;;3.93;2.20;;;14.50;76.00;;;;;;5016239;28;20146;-91
2022/11/08 12:08:28;;;;;;;8.55;2.30;;;14.50;76.30;;;;;;5014790;28;20227;-90
2022/11/08 12:11:06;;;;;;;4.20;2.10;;;14.50;76.00;;;;;;5015956;28;20526;-89
2022/11/08 12:13:59;;;;;;;6.07;2.80;;;14.50;75.20;;;;;;5024522;28;20254;-89
2022/11/08 12:16:33;;;;;;;4.90;2.20;;;14.60;75.30;;;;;;5023592;28;20162;-90
2022/11/08 12:19:36;;;;;;;8.25;2.30;;;14.50;75.50;;;;;;5016230;28;20182;-90
2022/11/08 12:22:31;;;;;;;4.10;2.07;;;14.50;75.40;;;;;;5014538;28;20192;-91
2022/11/08 12:25:12;;;;;;;5.40;2.50;;;14.50;75.00;;;;;;5014540;28;20173;-91
2022/11/08 12:27:53;;;;;;;7.77;2.50;;;14.50;74.60;;;;;;5014352;28;20547;-91
2022/11/08 12:30:28;;;;;;;5.43;2.80;;;14.50;75.50;;;;;;5014586;28;20208;-91
2022/11/08 12:33:03;;;;;;;7.93;2.90;;;14.50;75.30;;;;;;5014756;28;20193;-90
2022/11/08 12:36:04;;;;;;;8.30;2.45;;;14.50;75.50;;;;;;5014283;28;20172;-91
2022/11/08 12:38:40;;;;;;;4.40;2.57;;;14.50;76.00;;;;;;5013426;28;20579;-90
2022/11/08 12:41:26;;;;;;;6.93;2.40;;;14.60;76.20;;;;;;5014189;28;20165;-90
2022/11/08 12:44:20;;;;;;;4.45;2.33;;;14.70;75.60;;;;;;5014539;28;20169;-91
2022/11/08 12:47:24;;;;;;;5.38;2.30;;;14.70;75.80;;;;;;5014029;28;20201;-91
2022/11/08 12:50:12;;;;;;;3.13;2.13;;;14.70;75.80;;;;;;4984282;28;20181;-91
2022/11/08 12:52:53;;;;;;;3.92;2.67;;;14.70;76.00;;;;;;5014535;28;20248;-91
2022/11/08 12:55:24;;;;;;;11.13;2.50;;;14.70;75.80;;;;;;5014051;28;20175;-91
2022/11/08 12:57:56;;;;;;;5.72;2.33;;;14.70;75.70;;;;;;5014010;28;20264;-91
2022/11/08 13:00:22;;;;;;;2.78;1.88;;;14.80;75.50;;;;;;5013681;28;20655;-91
2022/11/08 13:03:06;;;;;;;6.03;2.00;;;14.70;76.00;;;;;;5013679;28;20220;-91
2022/11/08 13:05:43;;;;;;;7.55;2.50;;;14.80;75.50;;;;;;5015111;28;20173;-91
2022/11/08 13:08:23;;;;;;;4.10;2.40;;;14.80;75.80;;;;;;5013950;28;20169;-91
2022/11/08 13:10:54;;;;;;;4.50;2.13;;;14.80;75.70;;;;;;5014182;28;20713;-92
2022/11/08 13:13:29;;;;;;;4.25;2.20;;;14.80;75.30;;;;;;5013832;28;20240;-90
2022/11/08 13:16:17;;;;;;;4.18;2.53;;;14.80;75.40;;;;;;5013609;28;20790;-92